createdAt,value
2023-03-10T00:03:23.621Z,100041.22
2023-03-10T00:08:26.101Z,100035.34
2023-03-10T00:13:25.648Z,100037.56
2023-03-10T00:18:24.445Z,100042.63
2023-03-10T00:23:24.486Z,100043.69
2023-03-10T00:28:23.251Z,100045.16
2023-03-10T00:33:21.956Z,100043.06
2023-03-10T00:38:20.651Z,100045.25
2023-03-10T00:43:20.817Z,100053.69
2023-03-10T00:48:19.866Z,100064.13
2023-03-10T00:53:18.849Z,100067.00
2023-03-10T00:58:17.521Z,100064.06
2023-03-10T01:03:17.596Z,100060.97
2023-03-10T01:08:17.125Z,100067.84
2023-03-10T01:13:17.435Z,100067.22
2023-03-10T01:18:18.936Z,100080.38
2023-03-10T01:23:20.962Z,100075.34
2023-03-10T01:28:22.013Z,100063.72
2023-03-10T01:33:22.155Z,100067.53
2023-03-10T01:38:20.872Z,100072.06
2023-03-10T01:43:31.688Z,100076.81
2023-03-10T01:48:35.307Z,100067.13
2023-03-10T01:53:35.133Z,100085.06
2023-03-10T01:58:44.247Z,100085.78
2023-03-10T02:03:49.708Z,100078.94
2023-03-10T02:08:54.336Z,100073.66
2023-03-10T02:13:53.128Z,100076.28
2023-03-10T02:18:53.234Z,100078.50
2023-03-10T02:24:01.748Z,100069.84
2023-03-10T02:29:05.616Z,100074.28
2023-03-10T02:34:06.740Z,100081.25
2023-03-10T02:39:06.039Z,100081.88
2023-03-10T02:44:10.773Z,100087.91
2023-03-10T02:49:10.982Z,100094.44
2023-03-10T02:54:14.183Z,100096.63
2023-03-10T02:59:15.105Z,100096.03
2023-03-10T03:04:18.965Z,100096.41
2023-03-10T03:09:18.455Z,100105.69
2023-03-10T03:14:19.892Z,100108.31
2023-03-10T03:19:20.810Z,100104.06
2023-03-10T03:24:21.209Z,100103.31
2023-03-10T03:29:21.744Z,100106.63
2023-03-10T03:34:21.109Z,100112.34
2023-03-10T03:39:22.751Z,100111.44
2023-03-10T03:44:27.716Z,100103.38
2023-03-10T03:49:27.669Z,100095.22
2023-03-10T03:54:26.944Z,100086.06
2023-03-10T03:59:27.298Z,100068.25
2023-03-10T04:04:27.414Z,100075.53
2023-03-10T04:09:27.015Z,100060.56
2023-03-10T04:14:27.280Z,100060.66
2023-03-10T04:19:27.511Z,100057.88
2023-03-10T04:24:32.265Z,100059.94
2023-03-10T04:29:33.169Z,100064.13
2023-03-10T04:34:32.615Z,100074.47
2023-03-10T04:39:31.572Z,100077.44
2023-03-10T04:44:31.629Z,100083.34
2023-03-10T04:49:34.783Z,100099.81
2023-03-10T04:54:34.708Z,100102.31
2023-03-10T04:59:33.519Z,100098.56
2023-03-10T05:04:32.564Z,100091.34
2023-03-10T05:09:35.524Z,100095.81
2023-03-10T05:14:34.672Z,100088.50
2023-03-10T05:19:37.320Z,100094.53
2023-03-10T05:24:38.035Z,100093.13
2023-03-10T05:29:42.236Z,100100.09
2023-03-10T05:34:47.707Z,100098.84
2023-03-10T05:39:51.333Z,100101.47
2023-03-10T05:44:52.542Z,100096.75
2023-03-10T05:49:51.468Z,100106.16
2023-03-10T05:54:52.419Z,100103.19
2023-03-10T05:59:52.149Z,100101.31
2023-03-10T06:04:51.200Z,100112.25
2023-03-10T06:09:54.167Z,100109.72
2023-03-10T06:14:52.890Z,100093.16
2023-03-10T06:19:52.543Z,100103.22
2023-03-10T06:24:52.682Z,100105.81
2023-03-10T06:29:51.580Z,100124.88
2023-03-10T06:34:50.376Z,100127.34
2023-03-10T06:39:49.129Z,100128.81
2023-03-10T06:44:49.560Z,100130.72
2023-03-10T06:49:49.442Z,100133.63
2023-03-10T06:54:48.231Z,100136.19
2023-03-10T06:59:48.364Z,100135.66
2023-03-10T07:04:47.454Z,100126.03
2023-03-10T07:09:47.124Z,100121.91
2023-03-10T07:14:45.880Z,100126.06
2023-03-10T07:19:46.352Z,100136.59
2023-03-10T07:24:45.125Z,100122.97
2023-03-10T07:29:43.811Z,100114.66
2023-03-10T07:34:42.575Z,100112.59
2023-03-10T07:39:42.713Z,100100.53
2023-03-10T07:44:41.448Z,100088.47
2023-03-10T07:49:46.478Z,100088.25
2023-03-10T07:54:47.046Z,100085.25
2023-03-10T07:59:46.067Z,100081.69
2023-03-10T08:04:45.234Z,100069.03
2023-03-10T08:09:44.091Z,100062.22
2023-03-10T08:14:44.368Z,100064.38
2023-03-10T08:19:43.128Z,100062.94
2023-03-10T08:24:41.785Z,100060.25
2023-03-10T08:29:40.481Z,100060.50
2023-03-10T08:34:41.757Z,100068.63
2023-03-10T08:39:40.625Z,100070.81
2023-03-10T08:44:39.412Z,100064.09
2023-03-10T08:49:38.157Z,100065.44
2023-03-10T08:54:38.276Z,100062.06
2023-03-10T08:59:37.369Z,100054.75
2023-03-10T09:04:36.172Z,100046.88
2023-03-10T09:09:34.945Z,100044.13
2023-03-10T09:14:35.159Z,100039.41
2023-03-10T09:19:33.914Z,100039.91
2023-03-10T09:24:32.726Z,100028.41
2023-03-10T09:29:42.528Z,100008.47
2023-03-10T09:34:43.637Z,99992.50
2023-03-10T09:39:42.517Z,99977.41
2023-03-10T09:44:48.503Z,99974.38
2023-03-10T09:49:55.967Z,99976.59
2023-03-10T09:55:01.269Z,99946.81
2023-03-10T10:00:05.185Z,99932.34
2023-03-10T10:05:17.107Z,99929.34
2023-03-10T10:10:19.769Z,99930.94
2023-03-10T10:15:22.360Z,99924.94
2023-03-10T10:20:26.628Z,99926.84
2023-03-10T10:25:26.951Z,99922.84
2023-03-10T10:30:35.703Z,99911.19
2023-03-10T10:35:38.661Z,99895.19
2023-03-10T10:40:47.634Z,99890.28
2023-03-10T10:45:54.230Z,99886.31
2023-03-10T10:50:56.010Z,99887.97
2023-03-10T10:56:00.967Z,99880.22
2023-03-10T11:01:01.748Z,99863.38
2023-03-10T11:06:15.386Z,99849.75
2023-03-10T11:11:23.441Z,99833.13
2023-03-10T11:16:29.604Z,99832.22
2023-03-10T11:21:33.276Z,99819.47
2023-03-10T11:26:44.729Z,99811.63
2023-03-10T11:31:51.589Z,99801.56
2023-03-10T11:37:02.883Z,99794.56
2023-03-10T11:42:07.186Z,99772.16
2023-03-10T11:47:13.131Z,99778.06
2023-03-10T11:52:18.137Z,99764.25
2023-03-10T11:57:20.378Z,99745.75
2023-03-10T12:02:25.520Z,99727.47
2023-03-10T12:07:30.673Z,99719.25
2023-03-10T12:12:33.533Z,99701.09
2023-03-10T12:17:33.042Z,99701.56
2023-03-10T12:22:40.857Z,99698.53
2023-03-10T12:28:13.741Z,99680.38
2023-03-10T12:33:43.861Z,99677.28
2023-03-10T12:38:51.366Z,99658.16
2023-03-10T12:43:59.699Z,99650.38
2023-03-10T12:49:09.350Z,99640.56
2023-03-10T12:54:32.018Z,99632.97
2023-03-10T12:59:39.777Z,99623.03
2023-03-10T13:04:38.812Z,99620.22
2023-03-10T13:09:43.045Z,99606.69
2023-03-10T13:14:43.924Z,99589.50
2023-03-10T13:19:42.810Z,99581.38
2023-03-10T13:24:43.363Z,99579.28
2023-03-10T13:29:54.374Z,99563.38
2023-03-10T13:34:53.299Z,99550.06
2023-03-10T13:39:53.701Z,99544.59
2023-03-10T13:44:53.652Z,99535.28
2023-03-10T13:49:54.815Z,99533.97
2023-03-10T13:55:06.610Z,99532.09
2023-03-10T14:00:08.532Z,99523.19
2023-03-10T14:05:38.982Z,99524.34
2023-03-10T14:10:39.273Z,99511.91
2023-03-10T14:15:39.160Z,99507.94
2023-03-10T14:20:40.041Z,99494.28
2023-03-10T14:25:42.580Z,99483.09
2023-03-10T14:30:44.254Z,99474.50
2023-03-10T14:35:44.099Z,99470.97
2023-03-10T14:40:47.389Z,99471.47
2023-03-10T14:45:47.821Z,99459.44
2023-03-10T14:50:48.316Z,99457.47
2023-03-10T14:55:51.490Z,99456.09
2023-03-10T15:00:50.858Z,99456.97
2023-03-10T15:05:49.701Z,99451.38
2023-03-10T15:10:52.237Z,99452.84
2023-03-10T15:15:51.522Z,99453.69
2023-03-10T15:20:50.659Z,99436.81
2023-03-10T15:25:50.870Z,99431.31
2023-03-10T15:30:50.214Z,99422.63
2023-03-10T15:35:50.156Z,99420.81
2023-03-10T15:40:50.550Z,99415.97
2023-03-10T15:45:50.455Z,99410.47
2023-03-10T15:50:49.156Z,99400.59
2023-03-10T15:55:48.480Z,99405.75
2023-03-10T16:00:48.646Z,99404.81
2023-03-10T16:05:49.171Z,99399.00
2023-03-10T16:10:54.641Z,99404.81
2023-03-10T16:15:54.846Z,99415.28
2023-03-10T16:20:58.696Z,99420.34
2023-03-10T16:26:10.252Z,99421.38
2023-03-10T16:31:11.484Z,99426.72
2023-03-10T16:36:14.535Z,99433.50
2023-03-10T16:41:14.045Z,99421.16
2023-03-10T16:46:17.439Z,99435.78
2023-03-10T16:51:23.325Z,99428.53
2023-03-10T16:56:23.115Z,99410.47
2023-03-10T17:01:24.327Z,99403.03
2023-03-10T17:06:25.297Z,99401.66
2023-03-10T17:11:26.820Z,99399.75
2023-03-10T17:16:29.326Z,99419.41
2023-03-10T17:21:29.934Z,99429.97
2023-03-10T17:26:28.981Z,99424.72
2023-03-10T17:31:30.776Z,99424.75
2023-03-10T17:36:30.328Z,99414.84
2023-03-10T17:41:30.543Z,99418.25
2023-03-10T17:46:32.908Z,99407.47
2023-03-10T17:51:32.450Z,99390.84
2023-03-10T17:56:31.429Z,99394.56
2023-03-10T18:01:33.696Z,99377.13
2023-03-10T18:06:34.537Z,99380.88
2023-03-10T18:11:33.749Z,99383.94
2023-03-10T18:16:35.743Z,99371.50
2023-03-10T18:21:34.701Z,99363.34
2023-03-10T18:26:33.883Z,99377.41
2023-03-10T18:31:34.847Z,99358.28
2023-03-10T18:36:34.216Z,99353.09
2023-03-10T18:41:33.059Z,99345.63
2023-03-10T18:46:33.460Z,99341.06
2023-03-10T18:51:32.322Z,99332.09
2023-03-10T18:56:31.601Z,99328.06
2023-03-10T19:01:30.710Z,99322.84
2023-03-10T19:06:35.448Z,99314.47
2023-03-10T19:11:36.198Z,99312.81
2023-03-10T19:16:36.678Z,99305.44
2023-03-10T19:21:38.200Z,99290.16
2023-03-10T19:26:37.378Z,99293.25
2023-03-10T19:31:36.501Z,99286.50
2023-03-10T19:36:36.628Z,99270.59
2023-03-10T19:41:35.546Z,99274.94
2023-03-10T19:46:34.672Z,99274.69
2023-03-10T19:51:38.499Z,99270.59
2023-03-10T19:56:37.390Z,99260.47
2023-03-10T20:01:39.032Z,99256.09
2023-03-10T20:06:39.441Z,99254.34
2023-03-10T20:11:38.901Z,99254.34
2023-03-10T20:16:37.718Z,99237.44
2023-03-10T20:21:36.479Z,99239.41
2023-03-10T20:26:36.920Z,99234.44
2023-03-10T20:31:36.280Z,99223.41
2023-03-10T20:36:39.357Z,99212.25
2023-03-10T20:41:42.270Z,99215.38
2023-03-10T20:46:45.304Z,99215.97
2023-03-10T20:51:44.007Z,99201.31
2023-03-10T20:56:44.309Z,99209.28
2023-03-10T21:01:43.150Z,99198.16
2023-03-10T21:06:41.966Z,99198.06
2023-03-10T21:11:41.493Z,99197.81
2023-03-10T21:16:42.171Z,99194.63
2023-03-10T21:21:43.295Z,99180.28
2023-03-10T21:26:42.000Z,99179.44
2023-03-10T21:31:42.314Z,99164.84
2023-03-10T21:36:41.152Z,99154.81
2023-03-10T21:41:40.249Z,99156.41
2023-03-10T21:46:39.130Z,99153.47
2023-03-10T21:51:39.469Z,99137.00
2023-03-10T21:56:38.381Z,99119.06
2023-03-10T22:01:37.206Z,99121.59
2023-03-10T22:06:36.034Z,99099.63
2023-03-10T22:11:36.256Z,99093.91
2023-03-10T22:16:35.001Z,99085.66
2023-03-10T22:21:33.861Z,99093.44
2023-03-10T22:26:32.638Z,99094.59
2023-03-10T22:31:33.153Z,99087.75
2023-03-10T22:36:32.212Z,99082.22
2023-03-10T22:41:31.072Z,99072.75
2023-03-10T22:46:29.787Z,99076.38
2023-03-10T22:51:29.945Z,99078.34
2023-03-10T22:56:28.817Z,99075.28
2023-03-10T23:01:27.647Z,99093.16
2023-03-10T23:06:29.190Z,99082.00
2023-03-10T23:11:29.419Z,99087.28
2023-03-10T23:16:28.679Z,99068.38
2023-03-10T23:21:27.544Z,99061.69
2023-03-10T23:26:27.253Z,99061.16
2023-03-10T23:31:27.530Z,99050.84
2023-03-10T23:36:26.311Z,99059.94
2023-03-10T23:41:25.416Z,99053.09
2023-03-10T23:46:24.169Z,99052.84
2023-03-10T23:51:24.321Z,99054.53
2023-03-10T23:56:23.077Z,99052.09
